createdAt,value
2022-12-06T00:00:38.129Z,0
2022-12-06T00:01:39.404Z,0
2022-12-06T00:02:39.649Z,0
2022-12-06T00:03:40.409Z,0
2022-12-06T00:04:39.964Z,0
2022-12-06T00:05:46.007Z,0
2022-12-06T00:06:41.104Z,0
2022-12-06T00:07:42.192Z,0
2022-12-06T00:08:42.805Z,0
2022-12-06T00:09:43.003Z,0
2022-12-06T00:10:43.215Z,0
2022-12-06T00:11:44.133Z,0
2022-12-06T00:12:45.341Z,0
2022-12-06T00:13:45.557Z,0
2022-12-06T00:14:46.006Z,0
2022-12-06T00:15:46.489Z,0
2022-12-06T00:16:46.901Z,0
2022-12-06T00:17:53.329Z,0
2022-12-06T00:18:47.941Z,0
2022-12-06T00:19:48.863Z,0
2022-12-06T00:20:49.794Z,0
2022-12-06T00:21:49.687Z,0
2022-12-06T00:22:50.888Z,0
2022-12-06T00:23:50.502Z,0
2022-12-06T00:24:50.939Z,0
2022-12-06T00:25:52.199Z,0
2022-12-06T00:26:53.420Z,0
2022-12-06T00:27:53.626Z,0
2022-12-06T00:28:54.217Z,0
2022-12-06T00:29:54.878Z,0
2022-12-06T00:30:55.475Z,0
2022-12-06T00:31:56.886Z,0
2022-12-06T00:32:55.994Z,0
2022-12-06T00:33:56.920Z,0
2022-12-06T00:34:56.757Z,0
2022-12-06T00:35:57.703Z,0
2022-12-06T00:36:58.036Z,0
2022-12-06T00:37:58.376Z,0
2022-12-06T00:38:59.291Z,0
2022-12-06T00:39:59.739Z,0
2022-12-06T00:41:00.760Z,0
2022-12-06T00:42:00.963Z,0
2022-12-06T00:43:01.592Z,0
2022-12-06T00:44:03.076Z,0
2022-12-06T00:45:03.829Z,0
2022-12-06T00:46:04.141Z,0
2022-12-06T00:47:04.241Z,0
2022-12-06T00:48:05.432Z,0
2022-12-06T00:49:05.635Z,0
2022-12-06T00:50:06.371Z,0
2022-12-06T00:51:06.323Z,0
2022-12-06T00:52:07.507Z,0
2022-12-06T00:53:07.813Z,0
2022-12-06T00:54:08.714Z,0
2022-12-06T00:55:09.138Z,0
2022-12-06T00:56:10.333Z,0
2022-12-06T00:57:10.813Z,0
2022-12-06T00:58:10.724Z,0
2022-12-06T00:59:11.350Z,0
2022-12-06T01:00:12.572Z,0
2022-12-06T01:01:13.097Z,0
2022-12-06T01:02:12.834Z,0
2022-12-06T01:03:14.287Z,0
2022-12-06T01:04:13.995Z,0
2022-12-06T01:05:14.984Z,0
2022-12-06T01:06:15.932Z,0
2022-12-06T01:07:15.545Z,0
2022-12-06T01:08:17.363Z,0
2022-12-06T01:09:17.675Z,0
2022-12-06T01:10:18.293Z,0
2022-12-06T01:11:18.902Z,0
2022-12-06T01:12:19.816Z,0
2022-12-06T01:13:19.702Z,0
2022-12-06T01:14:20.607Z,0
2022-12-06T01:15:21.920Z,0
2022-12-06T01:16:22.193Z,0
2022-12-06T01:17:22.348Z,0
2022-12-06T01:18:22.233Z,0
2022-12-06T01:19:23.786Z,0
2022-12-06T01:20:24.003Z,0
2022-12-06T01:21:24.518Z,0
2022-12-06T01:22:25.128Z,0
2022-12-06T01:23:25.627Z,0
2022-12-06T01:24:25.252Z,0
2022-12-06T01:25:35.707Z,0
2022-12-06T01:26:26.399Z,0
2022-12-06T01:27:26.603Z,0
2022-12-06T01:28:27.513Z,0
2022-12-06T01:29:28.134Z,0
2022-12-06T01:30:28.762Z,0
2022-12-06T01:31:33.933Z,0
2022-12-06T01:32:29.728Z,0
2022-12-06T01:33:30.913Z,0
2022-12-06T01:34:31.824Z,0
2022-12-06T01:35:33.118Z,0
2022-12-06T01:36:33.631Z,0
2022-12-06T01:37:33.821Z,0
2022-12-06T01:38:34.158Z,0
2022-12-06T01:39:35.367Z,0
2022-12-06T01:40:35.277Z,0
2022-12-06T01:41:36.199Z,0
2022-12-06T01:42:36.836Z,0
2022-12-06T01:43:37.448Z,0
2022-12-06T01:44:38.638Z,0
2022-12-06T01:45:39.646Z,0
2022-12-06T01:46:40.084Z,0
2022-12-06T01:47:40.762Z,0
2022-12-06T01:48:41.372Z,0
2022-12-06T01:49:42.275Z,0
2022-12-06T01:50:43.181Z,0
2022-12-06T01:51:43.692Z,0
2022-12-06T01:52:43.882Z,0
2022-12-06T01:53:44.090Z,0
2022-12-06T01:54:44.576Z,0
2022-12-06T01:55:44.712Z,0
2022-12-06T01:56:46.196Z,0
2022-12-06T01:57:46.078Z,0
2022-12-06T01:58:47.053Z,0
2022-12-06T01:59:47.949Z,0
2022-12-06T02:00:48.179Z,0
2022-12-06T02:01:48.823Z,0
2022-12-06T02:02:49.441Z,0
2022-12-06T02:03:49.163Z,0
2022-12-06T02:04:50.368Z,0
2022-12-06T02:05:52.524Z,0
2022-12-06T02:06:51.040Z,0
2022-12-06T02:07:51.178Z,0
2022-12-06T02:08:51.538Z,0
2022-12-06T02:09:51.730Z,0
2022-12-06T02:10:52.751Z,0
2022-12-06T02:11:52.378Z,0
2022-12-06T02:12:53.590Z,0
2022-12-06T02:13:53.912Z,0
2022-12-06T02:14:54.544Z,0
2022-12-06T02:15:56.156Z,0
2022-12-06T02:16:56.741Z,0
2022-12-06T02:17:56.762Z,0
2022-12-06T02:18:56.665Z,0
2022-12-06T02:19:57.469Z,0
2022-12-06T02:20:58.062Z,0
2022-12-06T02:21:58.577Z,0
2022-12-06T02:22:58.774Z,0
2022-12-06T02:23:58.665Z,0
2022-12-06T02:24:58.877Z,0
2022-12-06T02:26:00.048Z,0
2022-12-06T02:27:00.197Z,0
2022-12-06T02:28:00.532Z,0
2022-12-06T02:29:01.438Z,0
2022-12-06T02:30:03.028Z,0
2022-12-06T02:31:03.319Z,0
2022-12-06T02:32:03.655Z,0
2022-12-06T02:33:06.214Z,0
2022-12-06T02:34:04.539Z,0
2022-12-06T02:35:06.052Z,0
2022-12-06T02:36:06.340Z,0
2022-12-06T02:37:07.277Z,0
2022-12-06T02:38:11.524Z,0
2022-12-06T02:39:07.417Z,0
2022-12-06T02:40:08.928Z,0
2022-12-06T02:41:08.536Z,0
2022-12-06T02:42:09.452Z,0
2022-12-06T02:43:10.370Z,0
2022-12-06T02:44:10.982Z,0
2022-12-06T02:45:11.895Z,0
2022-12-06T02:46:12.600Z,0
2022-12-06T02:47:12.928Z,0
2022-12-06T02:48:13.131Z,0
2022-12-06T02:49:14.021Z,0
2022-12-06T02:50:14.662Z,0
2022-12-06T02:51:14.871Z,0
2022-12-06T02:52:15.851Z,0
2022-12-06T02:53:16.459Z,0
2022-12-06T02:54:17.671Z,0
2022-12-06T02:55:17.283Z,0
2022-12-06T02:56:18.871Z,0
2022-12-06T02:57:18.781Z,0
2022-12-06T02:58:19.096Z,0
2022-12-06T02:59:19.999Z,0
2022-12-06T03:00:20.625Z,0
2022-12-06T03:01:22.012Z,0
2022-12-06T03:02:22.718Z,0
2022-12-06T03:03:23.388Z,0
2022-12-06T03:04:23.998Z,0
2022-12-06T03:05:24.345Z,0
2022-12-06T03:06:25.024Z,0
2022-12-06T03:07:26.078Z,0
2022-12-06T03:08:26.929Z,0
2022-12-06T03:09:27.111Z,0
2022-12-06T03:10:27.600Z,0
2022-12-06T03:11:27.520Z,0
2022-12-06T03:12:28.133Z,0
2022-12-06T03:13:29.064Z,0
2022-12-06T03:14:29.400Z,0
2022-12-06T03:15:30.527Z,0
2022-12-06T03:16:31.699Z,0
2022-12-06T03:17:32.203Z,0
2022-12-06T03:18:32.101Z,0
2022-12-06T03:19:33.005Z,0
2022-12-06T03:20:33.641Z,0
2022-12-06T03:21:34.543Z,0
2022-12-06T03:22:39.524Z,0
2022-12-06T03:23:35.404Z,0
2022-12-06T03:24:36.034Z,0
2022-12-06T03:25:36.360Z,0
2022-12-06T03:26:37.338Z,0
2022-12-06T03:27:37.928Z,0
2022-12-06T03:28:38.308Z,0
2022-12-06T03:29:39.194Z,0
2022-12-06T03:30:40.143Z,0
2022-12-06T03:31:41.501Z,0
2022-12-06T03:32:41.997Z,0
2022-12-06T03:33:42.185Z,0
2022-12-06T03:34:43.077Z,0
2022-12-06T03:35:44.005Z,0
2022-12-06T03:36:44.321Z,0
2022-12-06T03:37:44.545Z,0
2022-12-06T03:38:45.459Z,0
2022-12-06T03:39:45.376Z,0
2022-12-06T03:40:46.000Z,0
2022-12-06T03:41:47.197Z,0
2022-12-06T03:42:46.807Z,0
2022-12-06T03:43:48.017Z,0
2022-12-06T03:44:47.919Z,0
2022-12-06T03:45:49.536Z,0
2022-12-06T03:46:49.468Z,0
2022-12-06T03:47:49.774Z,0
2022-12-06T03:48:50.663Z,0
2022-12-06T03:49:51.555Z,0
2022-12-06T03:50:57.028Z,0
2022-12-06T03:51:52.490Z,0
2022-12-06T03:52:52.741Z,0
2022-12-06T03:53:52.927Z,0
2022-12-06T03:54:52.542Z,0
2022-12-06T03:55:54.452Z,0
2022-12-06T03:56:55.160Z,0
2022-12-06T03:57:55.772Z,0
2022-12-06T03:58:56.976Z,0
2022-12-06T03:59:58.243Z,0
2022-12-06T04:00:58.060Z,0
2022-12-06T04:01:59.026Z,0
2022-12-06T04:02:59.140Z,0
2022-12-06T04:04:00.587Z,0
2022-12-06T04:05:00.628Z,0
2022-12-06T04:06:01.546Z,0
2022-12-06T04:07:01.988Z,0
2022-12-06T04:08:03.345Z,0
2022-12-06T04:09:03.622Z,0
2022-12-06T04:10:04.961Z,0
2022-12-06T04:11:05.457Z,0
2022-12-06T04:12:05.072Z,0
2022-12-06T04:13:05.998Z,0
2022-12-06T04:14:06.598Z,0
2022-12-06T04:15:06.917Z,0
2022-12-06T04:16:08.382Z,0
2022-12-06T04:17:08.235Z,0
2022-12-06T04:18:09.421Z,0
2022-12-06T04:19:10.407Z,0
2022-12-06T04:20:12.396Z,0
2022-12-06T04:21:11.926Z,0
2022-12-06T04:22:11.845Z,0
2022-12-06T04:23:13.075Z,0
2022-12-06T04:24:12.696Z,0
2022-12-06T04:25:13.589Z,0
2022-12-06T04:26:14.503Z,0
2022-12-06T04:27:15.784Z,0
2022-12-06T04:28:15.791Z,0
2022-12-06T04:29:16.118Z,0
2022-12-06T04:30:16.756Z,0
2022-12-06T04:31:27.130Z,0
2022-12-06T04:32:18.142Z,0
2022-12-06T04:33:18.655Z,0
2022-12-06T04:34:18.594Z,0
2022-12-06T04:35:19.206Z,0
2022-12-06T04:36:20.427Z,0
2022-12-06T04:37:21.022Z,0
2022-12-06T04:38:21.537Z,0
2022-12-06T04:39:26.777Z,0
2022-12-06T04:40:22.694Z,0
2022-12-06T04:41:22.923Z,0
2022-12-06T04:42:24.107Z,0
2022-12-06T04:43:24.024Z,0
2022-12-06T04:44:23.947Z,0
2022-12-06T04:45:24.565Z,0
2022-12-06T04:46:25.766Z,0
2022-12-06T04:47:25.984Z,0
2022-12-06T04:48:25.909Z,0
2022-12-06T04:49:26.817Z,0
2022-12-06T04:50:26.717Z,0
2022-12-06T04:51:27.642Z,0
2022-12-06T04:52:31.363Z,0
2022-12-06T04:53:29.343Z,0
2022-12-06T04:54:29.233Z,0
2022-12-06T04:55:29.720Z,0
2022-12-06T04:56:29.906Z,0
2022-12-06T04:57:30.210Z,0
2022-12-06T04:58:30.825Z,0
2022-12-06T04:59:31.732Z,0
2022-12-06T05:00:32.488Z,0
2022-12-06T05:01:33.421Z,0
2022-12-06T05:02:34.352Z,0
2022-12-06T05:03:37.325Z,0
2022-12-06T05:04:35.560Z,0
2022-12-06T05:05:35.873Z,0
2022-12-06T05:06:36.376Z,0
2022-12-06T05:07:36.467Z,0
2022-12-06T05:08:37.495Z,0
2022-12-06T05:09:37.977Z,0
2022-12-06T05:10:37.694Z,0
2022-12-06T05:11:38.928Z,0
2022-12-06T05:12:38.850Z,0
2022-12-06T05:13:40.058Z,0
2022-12-06T05:14:40.648Z,0
2022-12-06T05:15:41.538Z,0
2022-12-06T05:16:42.430Z,0
2022-12-06T05:17:43.354Z,0
2022-12-06T05:18:43.073Z,0
2022-12-06T05:19:44.263Z,0
2022-12-06T05:20:44.450Z,0
2022-12-06T05:21:45.367Z,0
2022-12-06T05:22:45.552Z,0
2022-12-06T05:23:46.070Z,0
2022-12-06T05:24:46.324Z,0
2022-12-06T05:25:46.531Z,0
2022-12-06T05:26:46.147Z,0
2022-12-06T05:27:47.538Z,0
2022-12-06T05:28:46.970Z,0
2022-12-06T05:29:48.155Z,0
2022-12-06T05:30:48.494Z,0
2022-12-06T05:31:49.497Z,0
2022-12-06T05:32:53.920Z,0
2022-12-06T05:33:50.933Z,0
2022-12-06T05:34:51.138Z,0
2022-12-06T05:35:51.447Z,0
2022-12-06T05:36:53.078Z,0
2022-12-06T05:37:53.095Z,0
2022-12-06T05:38:58.278Z,0
2022-12-06T05:39:53.892Z,0
2022-12-06T05:40:54.336Z,0
2022-12-06T05:41:55.536Z,0
2022-12-06T05:42:56.453Z,0
2022-12-06T05:43:56.637Z,0
2022-12-06T05:44:57.552Z,0
2022-12-06T05:45:58.455Z,0
2022-12-06T05:46:59.233Z,0
2022-12-06T05:48:00.255Z,0
2022-12-06T05:49:00.468Z,0
2022-12-06T05:50:00.882Z,0
2022-12-06T05:51:00.946Z,0
2022-12-06T05:52:09.806Z,0
2022-12-06T05:53:01.997Z,0
2022-12-06T05:54:02.503Z,0
2022-12-06T05:55:02.412Z,0
2022-12-06T05:56:03.340Z,0
2022-12-06T05:57:03.251Z,0
2022-12-06T05:58:04.299Z,0
2022-12-06T05:59:04.786Z,0
2022-12-06T06:00:05.551Z,0
2022-12-06T06:01:05.772Z,0
2022-12-06T06:02:06.531Z,0
2022-12-06T06:03:07.050Z,0
2022-12-06T06:04:07.461Z,0
2022-12-06T06:05:07.942Z,0
2022-12-06T06:06:07.855Z,0
2022-12-06T06:07:08.762Z,0
2022-12-06T06:08:09.101Z,0
2022-12-06T06:09:09.193Z,0
2022-12-06T06:10:10.505Z,0
2022-12-06T06:11:11.421Z,0
2022-12-06T06:12:18.180Z,0
2022-12-06T06:13:12.092Z,0
2022-12-06T06:14:12.981Z,0
2022-12-06T06:15:13.896Z,0
2022-12-06T06:16:15.083Z,0
2022-12-06T06:17:15.184Z,0
2022-12-06T06:18:16.521Z,0
2022-12-06T06:19:16.709Z,0
2022-12-06T06:20:17.619Z,4
2022-12-06T06:21:18.800Z,0
2022-12-06T06:22:18.724Z,4
2022-12-06T06:23:19.911Z,4
2022-12-06T06:24:19.881Z,0
2022-12-06T06:25:20.064Z,4
2022-12-06T06:26:20.958Z,4
2022-12-06T06:27:21.443Z,4
2022-12-06T06:28:21.422Z,8
2022-12-06T06:29:22.704Z,8
2022-12-06T06:30:23.612Z,8
2022-12-06T06:31:24.702Z,12
2022-12-06T06:32:24.773Z,12
2022-12-06T06:33:25.125Z,12
2022-12-06T06:34:26.365Z,16
2022-12-06T06:35:27.002Z,16
2022-12-06T06:36:27.912Z,20
2022-12-06T06:37:28.532Z,20
2022-12-06T06:38:29.555Z,24
2022-12-06T06:39:30.071Z,28
2022-12-06T06:40:29.988Z,32
2022-12-06T06:41:30.895Z,32
2022-12-06T06:42:31.534Z,36
2022-12-06T06:43:32.722Z,40
2022-12-06T06:44:32.928Z,44
2022-12-06T06:45:39.760Z,48
2022-12-06T06:46:33.840Z,48
2022-12-06T06:47:34.086Z,56
2022-12-06T06:48:35.095Z,60
2022-12-06T06:49:35.283Z,64
2022-12-06T06:50:36.217Z,72
2022-12-06T06:51:37.429Z,76
2022-12-06T06:52:37.662Z,80
2022-12-06T06:53:37.851Z,84
2022-12-06T06:54:38.133Z,92
2022-12-06T06:55:38.668Z,96
2022-12-06T06:56:39.293Z,100
2022-12-06T06:57:40.510Z,108
2022-12-06T06:58:41.121Z,112
2022-12-06T06:59:41.735Z,120
2022-12-06T07:00:42.408Z,124
2022-12-06T07:01:43.950Z,128
2022-12-06T07:02:44.278Z,140
2022-12-06T07:03:45.136Z,144
2022-12-06T07:04:46.625Z,148
2022-12-06T07:05:46.267Z,156
2022-12-06T07:06:46.903Z,160
2022-12-06T07:07:47.827Z,164
2022-12-06T07:08:47.747Z,172
2022-12-06T07:09:48.702Z,176
2022-12-06T07:10:48.896Z,184
2022-12-06T07:11:49.890Z,192
2022-12-06T07:12:50.345Z,196
2022-12-06T07:13:58.420Z,204
2022-12-06T07:14:52.650Z,208
2022-12-06T07:15:52.571Z,216
2022-12-06T07:16:54.105Z,220
2022-12-06T07:17:53.536Z,224
2022-12-06T07:18:54.321Z,232
2022-12-06T07:19:54.685Z,236
2022-12-06T07:20:55.578Z,240
2022-12-06T07:21:56.777Z,248
2022-12-06T07:22:57.284Z,252
2022-12-06T07:23:57.906Z,260
2022-12-06T07:25:03.838Z,264
2022-12-06T07:25:59.316Z,268
2022-12-06T07:26:59.226Z,276
2022-12-06T07:28:00.135Z,280
2022-12-06T07:29:00.845Z,284
2022-12-06T07:30:01.981Z,288
2022-12-06T07:31:02.092Z,296
2022-12-06T07:32:02.506Z,304
2022-12-06T07:33:03.144Z,364
2022-12-06T07:34:04.108Z,788
2022-12-06T07:35:04.051Z,1284
2022-12-06T07:36:34.357Z,1572
2022-12-06T07:37:05.545Z,1752
2022-12-06T07:38:05.765Z,2432
2022-12-06T07:39:10.241Z,3432
2022-12-06T07:40:07.638Z,3968
2022-12-06T07:41:16.190Z,4164
2022-12-06T07:42:07.384Z,3968
2022-12-06T07:43:07.431Z,3584
2022-12-06T07:44:08.627Z,3424
2022-12-06T07:45:13.094Z,3756
2022-12-06T07:46:09.377Z,4048
2022-12-06T07:47:09.380Z,4284
2022-12-06T07:48:10.271Z,4256
2022-12-06T07:49:10.606Z,3716
2022-12-06T07:50:16.089Z,2636
2022-12-06T07:51:11.506Z,2016
2022-12-06T07:52:11.853Z,1872
2022-12-06T07:53:12.492Z,1740
2022-12-06T07:54:12.698Z,1736
2022-12-06T07:55:13.655Z,2588
2022-12-06T07:56:13.876Z,3312
2022-12-06T07:57:14.367Z,2920
2022-12-06T07:58:14.288Z,3112
2022-12-06T07:59:14.015Z,3248
2022-12-06T08:00:15.936Z,2988
2022-12-06T08:01:16.123Z,3288
2022-12-06T08:02:16.843Z,2884
2022-12-06T08:03:16.798Z,1728
2022-12-06T08:04:18.611Z,1204
2022-12-06T08:05:17.973Z,1100
2022-12-06T08:06:18.889Z,1112
2022-12-06T08:07:19.780Z,992
2022-12-06T08:08:23.811Z,912
2022-12-06T08:09:20.707Z,908
2022-12-06T08:10:21.933Z,1020
2022-12-06T08:11:21.899Z,1180
2022-12-06T08:12:23.210Z,1252
2022-12-06T08:13:23.739Z,1176
2022-12-06T08:14:24.230Z,1252
2022-12-06T08:15:24.201Z,1352
2022-12-06T08:16:25.342Z,1344
2022-12-06T08:17:25.509Z,1392
2022-12-06T08:18:25.729Z,1456
2022-12-06T08:19:25.821Z,1408
2022-12-06T08:20:26.941Z,1400
2022-12-06T08:21:27.138Z,1364
2022-12-06T08:22:28.075Z,1344
2022-12-06T08:23:39.106Z,1344
2022-12-06T08:24:30.033Z,1336
2022-12-06T08:25:31.003Z,1320
2022-12-06T08:26:31.908Z,1320
2022-12-06T08:27:31.853Z,1332
2022-12-06T08:28:32.519Z,1360
2022-12-06T08:29:32.960Z,1376
2022-12-06T08:30:33.910Z,1576
2022-12-06T08:31:34.414Z,1396
2022-12-06T08:32:34.452Z,1980
2022-12-06T08:33:35.938Z,4144
2022-12-06T08:34:36.161Z,3268
2022-12-06T08:35:36.438Z,2284
2022-12-06T08:36:37.369Z,1728
2022-12-06T08:37:38.275Z,1660
2022-12-06T08:38:38.484Z,1476
2022-12-06T08:39:38.840Z,1236
2022-12-06T08:40:39.502Z,1364
2022-12-06T08:41:39.704Z,1696
2022-12-06T08:42:39.639Z,2084
2022-12-06T08:43:40.558Z,2512
2022-12-06T08:44:41.492Z,2776
2022-12-06T08:45:42.423Z,3164
2022-12-06T08:46:43.017Z,2964
2022-12-06T08:47:43.315Z,2444
2022-12-06T08:48:49.225Z,2068
2022-12-06T08:49:43.968Z,1676
2022-12-06T08:50:44.163Z,1584
2022-12-06T08:51:45.091Z,1692
2022-12-06T08:52:46.314Z,1984
2022-12-06T08:53:46.247Z,2052
2022-12-06T08:54:46.441Z,1980
2022-12-06T08:55:46.692Z,1828
2022-12-06T08:56:48.028Z,1776
2022-12-06T08:57:48.275Z,1812
2022-12-06T08:58:48.903Z,1804
2022-12-06T08:59:49.208Z,1764
2022-12-06T09:00:50.428Z,1932
2022-12-06T09:01:50.287Z,2472
2022-12-06T09:02:50.760Z,2908
2022-12-06T09:03:52.261Z,2944
2022-12-06T09:04:52.462Z,3060
2022-12-06T09:05:53.158Z,3448
2022-12-06T09:06:53.076Z,4312
2022-12-06T09:07:54.164Z,4340
2022-12-06T09:08:54.745Z,3392
2022-12-06T09:09:54.751Z,2908
2022-12-06T09:10:55.524Z,2876
2022-12-06T09:11:56.148Z,3564
2022-12-06T09:12:57.376Z,3940
2022-12-06T09:13:57.286Z,4164
2022-12-06T09:14:58.483Z,4236
2022-12-06T09:15:58.548Z,4584
2022-12-06T09:16:59.250Z,5492
2022-12-06T09:18:00.168Z,6284
2022-12-06T09:19:00.091Z,5684
2022-12-06T09:20:10.966Z,5040
2022-12-06T09:21:01.359Z,4108
2022-12-06T09:22:01.577Z,3252
2022-12-06T09:23:02.097Z,4252
2022-12-06T09:24:02.476Z,4060
2022-12-06T09:25:02.510Z,2964
2022-12-06T09:26:03.589Z,4428
2022-12-06T09:27:04.148Z,4840
2022-12-06T09:28:04.355Z,4232
2022-12-06T09:29:05.047Z,4292
2022-12-06T09:30:05.923Z,5072
2022-12-06T09:31:05.697Z,5716
2022-12-06T09:32:06.914Z,5816
2022-12-06T09:33:07.108Z,5652
2022-12-06T09:34:08.047Z,4664
2022-12-06T09:35:13.959Z,4244
2022-12-06T09:36:09.822Z,5936
2022-12-06T09:37:10.297Z,6712
2022-12-06T09:38:10.272Z,6092
2022-12-06T09:39:11.291Z,5748
2022-12-06T09:40:11.994Z,4508
2022-12-06T09:41:12.538Z,2852
2022-12-06T09:42:12.497Z,3600
2022-12-06T09:43:12.146Z,4996
2022-12-06T09:44:14.105Z,5836
2022-12-06T09:45:14.326Z,5420
2022-12-06T09:46:14.854Z,4900
2022-12-06T09:47:14.941Z,5252
2022-12-06T09:48:15.635Z,5756
2022-12-06T09:49:16.377Z,5500
2022-12-06T09:50:17.009Z,3856
2022-12-06T09:51:16.973Z,4816
2022-12-06T09:52:17.654Z,5904
2022-12-06T09:53:18.287Z,5840
2022-12-06T09:54:19.251Z,3180
2022-12-06T09:55:20.336Z,2728
2022-12-06T09:56:20.881Z,2248
2022-12-06T09:57:21.097Z,2064
2022-12-06T09:58:20.792Z,1856
2022-12-06T09:59:21.517Z,1684
2022-12-06T10:00:29.002Z,1480
2022-12-06T10:01:22.742Z,1376
2022-12-06T10:02:24.576Z,1268
2022-12-06T10:03:25.032Z,1184
2022-12-06T10:04:25.442Z,1112
2022-12-06T10:05:25.865Z,1064
2022-12-06T10:06:26.840Z,1052
2022-12-06T10:07:27.327Z,1036
2022-12-06T10:08:28.032Z,1016
2022-12-06T10:09:28.617Z,984
2022-12-06T10:10:29.363Z,960
2022-12-06T10:11:29.602Z,940
2022-12-06T10:12:29.843Z,924
2022-12-06T10:13:30.770Z,916
2022-12-06T10:14:31.046Z,920
2022-12-06T10:15:30.961Z,924
2022-12-06T10:16:32.237Z,916
2022-12-06T10:17:32.211Z,908
2022-12-06T10:18:33.129Z,904
2022-12-06T10:19:33.453Z,900
2022-12-06T10:20:34.779Z,888
2022-12-06T10:21:35.726Z,876
2022-12-06T10:22:36.364Z,872
2022-12-06T10:23:37.007Z,872
2022-12-06T10:24:37.310Z,860
2022-12-06T10:25:37.225Z,852
2022-12-06T10:26:38.751Z,844
2022-12-06T10:27:39.255Z,848
2022-12-06T10:28:38.881Z,836
2022-12-06T10:29:41.134Z,828
2022-12-06T10:30:41.145Z,812
2022-12-06T10:31:42.156Z,800
2022-12-06T10:32:41.882Z,788
2022-12-06T10:33:43.366Z,780
2022-12-06T10:34:48.812Z,768
2022-12-06T10:35:44.020Z,760
2022-12-06T10:36:44.308Z,744
2022-12-06T10:37:44.267Z,744
2022-12-06T10:38:45.483Z,740
2022-12-06T10:39:51.633Z,752
2022-12-06T10:40:46.962Z,756
2022-12-06T10:42:00.947Z,760
2022-12-06T10:42:48.864Z,760
2022-12-06T10:43:49.053Z,752
2022-12-06T10:44:50.246Z,748
2022-12-06T10:45:50.428Z,740
2022-12-06T10:46:50.966Z,740
2022-12-06T10:47:51.280Z,732
2022-12-06T10:48:51.896Z,732
2022-12-06T10:49:52.218Z,732
2022-12-06T10:50:53.683Z,736
2022-12-06T10:51:53.639Z,740
2022-12-06T10:52:58.668Z,744
2022-12-06T10:53:55.432Z,748
2022-12-06T10:54:56.161Z,744
2022-12-06T10:55:57.376Z,740
2022-12-06T10:56:57.313Z,732
2022-12-06T10:57:58.566Z,724
2022-12-06T10:58:57.925Z,716
2022-12-06T11:00:03.336Z,708
2022-12-06T11:01:00.806Z,708
2022-12-06T11:02:01.278Z,708
2022-12-06T11:03:01.877Z,716
2022-12-06T11:04:02.791Z,712
2022-12-06T11:05:02.712Z,712
2022-12-06T11:06:03.935Z,712
2022-12-06T11:07:05.855Z,712
2022-12-06T11:08:05.375Z,712
2022-12-06T11:09:06.042Z,712
2022-12-06T11:10:07.230Z,704
2022-12-06T11:11:06.384Z,700
2022-12-06T11:12:07.617Z,692
2022-12-06T11:13:08.129Z,688
2022-12-06T11:14:08.777Z,692
2022-12-06T11:15:09.687Z,692
2022-12-06T11:16:11.300Z,688
2022-12-06T11:17:11.279Z,688
2022-12-06T11:18:13.692Z,680
2022-12-06T11:19:12.909Z,680
2022-12-06T11:20:13.975Z,684
2022-12-06T11:21:14.643Z,692
2022-12-06T11:22:14.688Z,696
2022-12-06T11:23:15.878Z,700
2022-12-06T11:24:16.500Z,696
2022-12-06T11:25:17.702Z,692
2022-12-06T11:26:19.252Z,688
2022-12-06T11:27:19.471Z,692
2022-12-06T11:28:20.486Z,688
2022-12-06T11:29:20.830Z,684
2022-12-06T11:30:26.450Z,684
2022-12-06T11:31:22.393Z,684
2022-12-06T11:32:22.269Z,680
2022-12-06T11:33:22.482Z,680
2022-12-06T11:34:23.404Z,676
2022-12-06T11:35:23.342Z,672
2022-12-06T11:36:23.975Z,672
2022-12-06T11:37:25.293Z,668
2022-12-06T11:38:26.461Z,664
2022-12-06T11:39:26.663Z,664
2022-12-06T11:40:27.170Z,656
2022-12-06T11:41:27.486Z,648
2022-12-06T11:42:27.817Z,644
2022-12-06T11:43:27.927Z,636
2022-12-06T11:44:28.437Z,628
2022-12-06T11:45:28.932Z,624
2022-12-06T11:46:29.768Z,616
2022-12-06T11:47:29.758Z,604
2022-12-06T11:48:30.398Z,604
2022-12-06T11:49:31.404Z,600
2022-12-06T11:50:32.105Z,596
2022-12-06T11:51:32.879Z,588
2022-12-06T11:52:33.410Z,584
2022-12-06T11:53:33.605Z,584
2022-12-06T11:54:34.234Z,588
2022-12-06T11:55:35.162Z,588
2022-12-06T11:56:34.794Z,592
2022-12-06T11:57:36.015Z,592
2022-12-06T11:58:36.547Z,592
2022-12-06T11:59:36.167Z,584
2022-12-06T12:00:38.097Z,576
2022-12-06T12:01:38.744Z,568
2022-12-06T12:02:39.343Z,552
2022-12-06T12:03:40.535Z,536
2022-12-06T12:04:41.137Z,524
2022-12-06T12:05:41.042Z,532
2022-12-06T12:06:41.931Z,532
2022-12-06T12:07:43.180Z,536
2022-12-06T12:08:44.441Z,544
2022-12-06T12:09:44.081Z,544
2022-12-06T12:10:45.333Z,548
2022-12-06T12:11:45.645Z,556
2022-12-06T12:12:45.598Z,564
2022-12-06T12:13:45.543Z,572
2022-12-06T12:14:51.218Z,580
2022-12-06T12:15:46.582Z,584
2022-12-06T12:16:47.388Z,588
2022-12-06T12:17:47.745Z,596
2022-12-06T12:18:47.944Z,612
2022-12-06T12:19:48.141Z,624
2022-12-06T12:20:49.074Z,640
2022-12-06T12:21:54.359Z,664
2022-12-06T12:22:50.840Z,680
2022-12-06T12:23:51.352Z,680
2022-12-06T12:25:26.556Z,660
2022-12-06T12:25:52.150Z,652
2022-12-06T12:26:53.365Z,648
2022-12-06T12:27:53.589Z,648
2022-12-06T12:28:54.846Z,656
2022-12-06T12:29:55.341Z,652
2022-12-06T12:30:55.270Z,640
2022-12-06T12:31:56.158Z,620
2022-12-06T12:32:56.159Z,604
2022-12-06T12:33:57.352Z,592
2022-12-06T12:34:58.482Z,580
2022-12-06T12:35:58.613Z,572
2022-12-06T12:36:59.802Z,568
2022-12-06T12:37:59.773Z,568
2022-12-06T12:38:59.976Z,568
2022-12-06T12:40:02.000Z,564
2022-12-06T12:41:01.395Z,564
2022-12-06T12:42:02.718Z,564
2022-12-06T12:43:03.654Z,560
2022-12-06T12:44:47.093Z,552
2022-12-06T12:45:04.956Z,556
2022-12-06T12:46:10.811Z,544
2022-12-06T12:47:05.247Z,532
2022-12-06T12:48:06.464Z,516
2022-12-06T12:49:07.357Z,504
2022-12-06T12:50:07.549Z,500
2022-12-06T12:51:07.751Z,500
2022-12-06T12:52:09.368Z,496
2022-12-06T12:53:10.077Z,496
2022-12-06T12:54:10.274Z,488
2022-12-06T12:55:11.742Z,488
2022-12-06T12:56:12.032Z,488
2022-12-06T12:57:12.952Z,492
2022-12-06T12:58:14.387Z,484
2022-12-06T12:59:14.027Z,484
2022-12-06T13:00:14.260Z,476
2022-12-06T13:01:15.637Z,472
2022-12-06T13:02:16.591Z,468
2022-12-06T13:03:57.031Z,468
2022-12-06T13:04:17.653Z,464
2022-12-06T13:05:53.580Z,444
2022-12-06T13:06:18.503Z,440
2022-12-06T13:07:19.697Z,432
2022-12-06T13:08:20.416Z,436
2022-12-06T13:09:20.419Z,444
2022-12-06T13:10:20.611Z,448
2022-12-06T13:11:21.514Z,452
2022-12-06T13:12:22.525Z,456
2022-12-06T13:13:22.750Z,460
2022-12-06T13:14:23.243Z,468
2022-12-06T13:15:23.464Z,484
2022-12-06T13:16:23.949Z,508
2022-12-06T13:17:24.452Z,536
2022-12-06T13:18:24.085Z,560
2022-12-06T13:19:25.275Z,568
2022-12-06T13:20:25.620Z,564
2022-12-06T13:21:26.825Z,560
2022-12-06T13:22:26.879Z,556
2022-12-06T13:23:28.375Z,548
2022-12-06T13:24:28.564Z,548
2022-12-06T13:25:29.787Z,544
2022-12-06T13:26:29.757Z,536
2022-12-06T13:27:30.261Z,524
2022-12-06T13:28:30.265Z,512
2022-12-06T13:29:30.529Z,496
2022-12-06T13:30:30.708Z,496
2022-12-06T13:31:31.571Z,484
2022-12-06T13:32:31.289Z,476
2022-12-06T13:33:32.528Z,468
2022-12-06T13:34:37.356Z,460
2022-12-06T13:35:33.259Z,456
2022-12-06T13:36:34.160Z,460
2022-12-06T13:37:34.675Z,464
2022-12-06T13:38:37.998Z,464
2022-12-06T13:39:35.486Z,460
2022-12-06T13:40:35.374Z,464
2022-12-06T13:41:36.958Z,460
2022-12-06T13:42:37.297Z,452
2022-12-06T13:43:45.829Z,444
2022-12-06T13:44:39.316Z,436
2022-12-06T13:45:39.811Z,416
2022-12-06T13:46:40.435Z,404
2022-12-06T13:47:40.951Z,396
2022-12-06T13:48:40.551Z,388
2022-12-06T13:49:54.686Z,380
2022-12-06T13:50:42.171Z,380
2022-12-06T13:51:42.382Z,376
2022-12-06T13:52:43.367Z,368
2022-12-06T13:53:44.588Z,360
2022-12-06T13:54:45.073Z,348
2022-12-06T13:55:44.712Z,344
2022-12-06T13:56:45.407Z,348
2022-12-06T13:57:46.307Z,344
2022-12-06T13:58:46.944Z,348
2022-12-06T13:59:47.203Z,340
2022-12-06T14:00:48.138Z,332
2022-12-06T14:01:51.716Z,320
2022-12-06T14:02:49.667Z,308
2022-12-06T14:03:50.081Z,304
2022-12-06T14:04:50.984Z,300
2022-12-06T14:06:52.771Z,292
2022-12-06T14:07:53.738Z,288
2022-12-06T14:08:54.057Z,280
2022-12-06T14:09:53.990Z,272
2022-12-06T14:10:55.443Z,268
2022-12-06T14:11:55.946Z,264
2022-12-06T14:12:56.379Z,260
2022-12-06T14:13:57.012Z,256
2022-12-06T14:14:57.911Z,248
2022-12-06T14:15:58.423Z,248
2022-12-06T14:16:59.083Z,252
2022-12-06T14:18:22.217Z,256